HK5478 SKMD-SKBQ
Flight info
| Callsign | HK5478 |
|---|---|
| Flight time | N/A |
| Altitude | 25000 |
| Route | 061603N0753451W DCT ISTAX DCT MD402 DCT BIVIG UW3 VOVLU VOVLU4A |
| Aircraft | B36T/L-BDFGLORY/S |
Departure
| Time | 2026-05-04 15:10 |
|---|---|
| Airport | Enrique Olaya Herrera Airport (SKMD) |
Arrival
| Time | N/A |
|---|---|
| Airport | Ernesto Cortissoz International Airport (SKBQ) |
| Time | Latitude | Longitude | Altitude | Speed | Heading |
|---|---|---|---|---|---|
| 2026-05-04 15:02 | 6.21202 | -75.59060 | 4931 ft | 0 kts | 296° |
| 2026-05-04 15:07 | 6.21210 | -75.59076 | 4930 ft | 11 kts | 292° |
| 2026-05-04 15:07 | 6.21143 | -75.59126 | 4935 ft | 19 kts | 191° |
| 2026-05-04 15:08 | 6.20981 | -75.59157 | 4949 ft | 27 kts | 190° |
| 2026-05-04 15:08 | 6.20902 | -75.59256 | 4959 ft | 13 kts | 307° |
| 2026-05-04 15:08 | 6.20931 | -75.59256 | 4956 ft | 0 kts | 9° |
| 2026-05-04 15:09 | 6.20973 | -75.59249 | 4950 ft | 35 kts | 11° |
| 2026-05-04 15:09 | 6.21531 | -75.59145 | 4922 ft | 118 kts | 11° |
| 2026-05-04 15:09 | 6.22441 | -75.58995 | 5247 ft | 143 kts | 13° |
| 2026-05-04 15:10 | 6.24475 | -75.58548 | 5996 ft | 154 kts | 12° |
| 2026-05-04 15:10 | 6.25525 | -75.58332 | 6319 ft | 154 kts | 11° |
| 2026-05-04 15:10 | 6.27528 | -75.57609 | 6975 ft | 156 kts | 33° |
| 2026-05-04 15:11 | 6.28457 | -75.57042 | 7285 ft | 156 kts | 31° |
| 2026-05-04 15:11 | 6.29394 | -75.56480 | 7585 ft | 157 kts | 32° |
| 2026-05-04 15:11 | 6.30336 | -75.55908 | 7892 ft | 159 kts | 33° |
| 2026-05-04 15:11 | 6.31265 | -75.55334 | 8185 ft | 158 kts | 38° |
| 2026-05-04 15:12 | 6.31953 | -75.54507 | 8488 ft | 154 kts | 60° |
| 2026-05-04 15:12 | 6.32553 | -75.53622 | 8798 ft | 153 kts | 57° |
| 2026-05-04 15:12 | 6.33155 | -75.52747 | 9114 ft | 152 kts | 58° |
| 2026-05-04 15:12 | 6.33756 | -75.51861 | 9437 ft | 154 kts | 59° |
| 2026-05-04 15:13 | 6.34364 | -75.50964 | 9756 ft | 156 kts | 58° |
| 2026-05-04 15:13 | 6.34975 | -75.50065 | 10083 ft | 155 kts | 59° |
| 2026-05-04 15:13 | 6.35582 | -75.49175 | 10378 ft | 154 kts | 59° |
| 2026-05-04 15:13 | 6.36339 | -75.48415 | 10673 ft | 159 kts | 33° |
| 2026-05-04 15:14 | 6.37367 | -75.47963 | 10969 ft | 162 kts | 27° |
| 2026-05-04 15:14 | 6.38383 | -75.47513 | 11265 ft | 162 kts | 27° |
| 2026-05-04 15:14 | 6.39413 | -75.47060 | 11569 ft | 162 kts | 27° |
| 2026-05-04 15:14 | 6.40442 | -75.46608 | 11868 ft | 161 kts | 28° |
| 2026-05-04 15:15 | 6.41450 | -75.46165 | 12171 ft | 156 kts | 28° |
| 2026-05-04 15:15 | 6.42454 | -75.45727 | 12487 ft | 158 kts | 27° |
| 2026-05-04 15:15 | 6.43468 | -75.45280 | 12800 ft | 159 kts | 28° |
| 2026-05-04 15:16 | 6.45495 | -75.44389 | 13433 ft | 159 kts | 27° |
| 2026-05-04 15:16 | 6.46515 | -75.43941 | 13713 ft | 162 kts | 27° |
| 2026-05-04 15:16 | 6.48586 | -75.43029 | 14184 ft | 165 kts | 27° |
| 2026-05-04 15:17 | 6.49638 | -75.42567 | 14407 ft | 165 kts | 27° |
| 2026-05-04 15:17 | 6.51765 | -75.41633 | 14860 ft | 169 kts | 27° |
| 2026-05-04 15:17 | 6.52842 | -75.41159 | 15088 ft | 169 kts | 28° |
| 2026-05-04 15:18 | 6.53922 | -75.40685 | 15321 ft | 169 kts | 27° |
| 2026-05-04 15:18 | 6.54988 | -75.40218 | 15549 ft | 169 kts | 27° |
| 2026-05-04 15:18 | 6.56069 | -75.39741 | 15779 ft | 170 kts | 27° |
| 2026-05-04 15:19 | 6.58231 | -75.38791 | 16250 ft | 170 kts | 27° |
| 2026-05-04 15:19 | 6.59308 | -75.38319 | 16489 ft | 168 kts | 27° |
| 2026-05-04 15:19 | 6.61453 | -75.37376 | 16974 ft | 168 kts | 28° |
| 2026-05-04 15:20 | 6.62526 | -75.36904 | 17218 ft | 169 kts | 28° |
| 2026-05-04 15:20 | 6.63608 | -75.36426 | 17462 ft | 170 kts | 28° |
| 2026-05-04 15:20 | 6.64674 | -75.35956 | 17709 ft | 169 kts | 28° |
| 2026-05-04 15:20 | 6.65755 | -75.35483 | 17960 ft | 169 kts | 28° |
| 2026-05-04 15:21 | 6.66839 | -75.35007 | 18216 ft | 171 kts | 28° |
| 2026-05-04 15:21 | 6.67928 | -75.34526 | 18465 ft | 171 kts | 28° |
| 2026-05-04 15:21 | 6.70108 | -75.33569 | 18896 ft | 170 kts | 28° |
| 2026-05-04 15:22 | 6.71189 | -75.33094 | 19115 ft | 169 kts | 28° |
| 2026-05-04 15:22 | 6.72267 | -75.32620 | 19331 ft | 169 kts | 28° |
| 2026-05-04 15:22 | 6.74413 | -75.31675 | 19774 ft | 168 kts | 28° |
| 2026-05-04 15:23 | 6.75463 | -75.31213 | 19992 ft | 167 kts | 28° |
| 2026-05-04 15:23 | 6.76525 | -75.30746 | 20221 ft | 167 kts | 27° |
| 2026-05-04 15:23 | 6.77594 | -75.30276 | 20450 ft | 169 kts | 28° |
| 2026-05-04 15:23 | 6.78673 | -75.29800 | 20682 ft | 170 kts | 27° |
| 2026-05-04 15:24 | 6.80837 | -75.28848 | 21144 ft | 169 kts | 27° |
| 2026-05-04 15:24 | 6.82984 | -75.27904 | 21616 ft | 168 kts | 27° |
| 2026-05-04 15:25 | 6.84051 | -75.27434 | 21857 ft | 167 kts | 27° |
| 2026-05-04 15:25 | 6.85098 | -75.26974 | 22096 ft | 166 kts | 27° |
| 2026-05-04 15:25 | 6.86154 | -75.26509 | 22336 ft | 165 kts | 27° |
| 2026-05-04 15:26 | 6.88228 | -75.25597 | 22819 ft | 161 kts | 27° |
| 2026-05-04 15:26 | 6.89261 | -75.25142 | 23072 ft | 163 kts | 27° |
| 2026-05-04 15:26 | 6.91469 | -75.24166 | 23113 ft | 182 kts | 26° |
| 2026-05-04 15:27 | 6.92654 | -75.23645 | 23106 ft | 189 kts | 26° |
| 2026-05-04 15:27 | 6.95111 | -75.22563 | 23103 ft | 198 kts | 26° |
| 2026-05-04 15:28 | 6.97665 | -75.21441 | 23095 ft | 202 kts | 26° |
| 2026-05-04 15:28 | 6.98956 | -75.20871 | 23093 ft | 203 kts | 26° |
| 2026-05-04 15:28 | 7.01552 | -75.19728 | 23089 ft | 204 kts | 26° |
| 2026-05-04 15:29 | 7.02928 | -75.19354 | 23081 ft | 207 kts | 10° |
| 2026-05-04 15:30 | 7.08627 | -75.18503 | 23067 ft | 209 kts | 11° |
| 2026-05-04 15:30 | 7.12946 | -75.17849 | 23058 ft | 209 kts | 11° |
| 2026-05-04 15:31 | 7.15829 | -75.17413 | 23053 ft | 210 kts | 11° |
| 2026-05-04 15:31 | 7.17273 | -75.17195 | 23050 ft | 210 kts | 11° |
| 2026-05-04 15:32 | 7.21587 | -75.16541 | 23044 ft | 209 kts | 11° |
| 2026-05-04 15:32 | 7.24472 | -75.16104 | 23035 ft | 209 kts | 11° |
| 2026-05-04 15:33 | 7.27349 | -75.15669 | 23027 ft | 209 kts | 11° |
| 2026-05-04 15:34 | 7.31636 | -75.15019 | 23018 ft | 208 kts | 11° |
| 2026-05-04 15:34 | 7.33068 | -75.14802 | 23012 ft | 208 kts | 11° |
| 2026-05-04 15:34 | 7.35929 | -75.14368 | 23010 ft | 208 kts | 11° |
| 2026-05-04 15:35 | 7.38799 | -75.13934 | 23003 ft | 209 kts | 11° |
| 2026-05-04 15:35 | 7.40235 | -75.13716 | 22999 ft | 209 kts | 11° |
| 2026-05-04 15:35 | 7.41653 | -75.13500 | 23002 ft | 209 kts | 11° |
| 2026-05-04 15:36 | 7.44529 | -75.13065 | 22994 ft | 209 kts | 11° |
| 2026-05-04 15:36 | 7.45965 | -75.12847 | 22995 ft | 209 kts | 11° |
| 2026-05-04 15:36 | 7.47401 | -75.12629 | 22988 ft | 209 kts | 11° |
| 2026-05-04 15:37 | 7.48840 | -75.12411 | 22990 ft | 209 kts | 11° |
| 2026-05-04 15:37 | 7.50278 | -75.12193 | 22983 ft | 209 kts | 11° |
| 2026-05-04 15:37 | 7.51718 | -75.11974 | 22986 ft | 209 kts | 11° |
| 2026-05-04 15:37 | 7.53153 | -75.11757 | 22984 ft | 209 kts | 11° |
| 2026-05-04 15:38 | 7.54571 | -75.11542 | 22979 ft | 209 kts | 11° |
| 2026-05-04 15:38 | 7.56006 | -75.11325 | 22979 ft | 209 kts | 11° |
| 2026-05-04 15:38 | 7.57443 | -75.11106 | 22980 ft | 209 kts | 11° |
| 2026-05-04 15:38 | 7.58882 | -75.10887 | 22979 ft | 209 kts | 11° |
| 2026-05-04 15:39 | 7.60323 | -75.10669 | 22972 ft | 209 kts | 11° |
| 2026-05-04 15:39 | 7.61764 | -75.10451 | 22971 ft | 210 kts | 11° |
| 2026-05-04 15:39 | 7.64650 | -75.10012 | 22972 ft | 210 kts | 11° |
| 2026-05-04 15:40 | 7.66092 | -75.09794 | 22972 ft | 210 kts | 11° |
| 2026-05-04 15:40 | 7.67514 | -75.09578 | 22970 ft | 209 kts | 11° |
| 2026-05-04 15:40 | 7.68954 | -75.09359 | 22968 ft | 209 kts | 11° |
| 2026-05-04 15:40 | 7.70394 | -75.09141 | 22968 ft | 209 kts | 11° |
| 2026-05-04 15:41 | 7.71832 | -75.08923 | 22962 ft | 209 kts | 11° |
| 2026-05-04 15:41 | 7.73270 | -75.08701 | 22961 ft | 209 kts | 11° |
| 2026-05-04 15:41 | 7.74709 | -75.08479 | 22962 ft | 209 kts | 11° |
| 2026-05-04 15:41 | 7.76153 | -75.08256 | 22966 ft | 210 kts | 11° |
| 2026-05-04 15:42 | 7.77604 | -75.08034 | 22961 ft | 211 kts | 11° |
| 2026-05-04 15:42 | 7.79037 | -75.07813 | 22961 ft | 211 kts | 11° |
| 2026-05-04 15:42 | 7.80487 | -75.07589 | 22963 ft | 211 kts | 11° |
| 2026-05-04 15:42 | 7.81934 | -75.07367 | 22961 ft | 210 kts | 11° |
| 2026-05-04 15:43 | 7.83380 | -75.07145 | 22958 ft | 210 kts | 11° |
| 2026-05-04 15:43 | 7.84820 | -75.06923 | 22958 ft | 209 kts | 11° |
| 2026-05-04 15:43 | 7.86260 | -75.06701 | 22958 ft | 209 kts | 11° |
| 2026-05-04 15:43 | 7.87700 | -75.06479 | 22953 ft | 209 kts | 11° |
| 2026-05-04 15:44 | 7.89140 | -75.06257 | 22955 ft | 209 kts | 11° |
| 2026-05-04 15:44 | 7.90577 | -75.06036 | 22955 ft | 209 kts | 11° |
| 2026-05-04 15:44 | 7.91997 | -75.05818 | 22951 ft | 209 kts | 11° |
| 2026-05-04 15:44 | 7.93431 | -75.05597 | 22952 ft | 209 kts | 11° |
| 2026-05-04 15:45 | 7.94865 | -75.05375 | 22952 ft | 208 kts | 11° |
| 2026-05-04 15:45 | 7.96299 | -75.05155 | 22946 ft | 208 kts | 11° |
| 2026-05-04 15:45 | 7.97734 | -75.04934 | 22948 ft | 209 kts | 11° |
| 2026-05-04 15:45 | 7.99169 | -75.04712 | 22947 ft | 209 kts | 11° |
| 2026-05-04 15:46 | 8.00606 | -75.04491 | 22950 ft | 209 kts | 11° |
| 2026-05-04 15:46 | 8.02044 | -75.04269 | 22948 ft | 209 kts | 11° |
| 2026-05-04 15:46 | 8.03481 | -75.04048 | 22946 ft | 209 kts | 11° |
| 2026-05-04 15:46 | 8.04902 | -75.03829 | 22942 ft | 209 kts | 11° |
| 2026-05-04 15:47 | 8.06340 | -75.03607 | 22946 ft | 209 kts | 11° |
| 2026-05-04 15:47 | 8.07781 | -75.03385 | 22947 ft | 209 kts | 11° |
| 2026-05-04 15:47 | 8.09219 | -75.03163 | 22946 ft | 209 kts | 11° |
| 2026-05-04 15:47 | 8.10659 | -75.02942 | 22944 ft | 209 kts | 11° |
| 2026-05-04 15:48 | 8.12095 | -75.02719 | 22939 ft | 209 kts | 11° |
| 2026-05-04 15:48 | 8.13533 | -75.02499 | 22942 ft | 209 kts | 11° |
| 2026-05-04 15:48 | 8.16403 | -75.02056 | 22940 ft | 209 kts | 11° |
| 2026-05-04 15:49 | 8.17820 | -75.01837 | 22940 ft | 209 kts | 11° |
| 2026-05-04 15:49 | 8.19257 | -75.01615 | 22942 ft | 209 kts | 11° |
| 2026-05-04 15:49 | 8.20695 | -75.01393 | 22941 ft | 209 kts | 11° |
| 2026-05-04 15:49 | 8.22133 | -75.01172 | 22941 ft | 209 kts | 11° |
| 2026-05-04 15:50 | 8.23571 | -75.00950 | 22939 ft | 209 kts | 11° |
| 2026-05-04 15:50 | 8.25011 | -75.00728 | 22937 ft | 209 kts | 11° |
| 2026-05-04 15:50 | 8.26451 | -75.00505 | 22937 ft | 209 kts | 11° |
| 2026-05-04 15:50 | 8.27872 | -75.00286 | 22940 ft | 209 kts | 11° |
| 2026-05-04 15:51 | 8.29312 | -75.00065 | 22939 ft | 209 kts | 11° |
| 2026-05-04 15:51 | 8.30752 | -74.99842 | 22942 ft | 210 kts | 11° |
| 2026-05-04 15:51 | 8.32195 | -74.99619 | 22941 ft | 210 kts | 11° |
| 2026-05-04 15:51 | 8.33636 | -74.99396 | 22940 ft | 209 kts | 11° |
| 2026-05-04 15:52 | 8.35075 | -74.99175 | 22937 ft | 209 kts | 11° |
| 2026-05-04 15:52 | 8.36515 | -74.98953 | 22938 ft | 209 kts | 11° |
| 2026-05-04 15:52 | 8.37955 | -74.98730 | 22935 ft | 209 kts | 11° |
| 2026-05-04 15:52 | 8.39394 | -74.98508 | 22934 ft | 209 kts | 11° |
| 2026-05-04 15:53 | 8.40814 | -74.98289 | 22940 ft | 209 kts | 11° |
| 2026-05-04 15:53 | 8.42256 | -74.98066 | 22938 ft | 210 kts | 11° |
| 2026-05-04 15:53 | 8.43696 | -74.97843 | 22935 ft | 210 kts | 11° |
| 2026-05-04 15:53 | 8.45138 | -74.97621 | 22938 ft | 210 kts | 11° |
| 2026-05-04 15:54 | 8.46581 | -74.97398 | 22938 ft | 210 kts | 11° |
| 2026-05-04 15:54 | 8.48024 | -74.97175 | 22936 ft | 210 kts | 11° |
| 2026-05-04 15:54 | 8.49469 | -74.96952 | 22936 ft | 210 kts | 11° |
| 2026-05-04 15:54 | 8.50912 | -74.96729 | 22935 ft | 210 kts | 11° |
| 2026-05-04 15:55 | 8.52356 | -74.96506 | 22932 ft | 210 kts | 11° |
| 2026-05-04 15:55 | 8.53780 | -74.96286 | 22935 ft | 210 kts | 11° |
| 2026-05-04 15:55 | 8.55225 | -74.96062 | 22934 ft | 210 kts | 11° |
| 2026-05-04 15:55 | 8.56669 | -74.95840 | 22932 ft | 210 kts | 11° |
| 2026-05-04 15:56 | 8.58114 | -74.95617 | 22936 ft | 210 kts | 11° |
| 2026-05-04 15:56 | 8.59562 | -74.95393 | 22936 ft | 211 kts | 11° |
| 2026-05-04 15:56 | 8.61012 | -74.95169 | 22937 ft | 211 kts | 10° |
| 2026-05-04 15:56 | 8.62463 | -74.94945 | 22939 ft | 211 kts | 11° |
| 2026-05-04 15:57 | 8.63913 | -74.94720 | 22932 ft | 211 kts | 10° |
| 2026-05-04 15:57 | 8.65363 | -74.94496 | 22932 ft | 210 kts | 10° |
| 2026-05-04 15:57 | 8.66787 | -74.94276 | 22933 ft | 210 kts | 10° |
| 2026-05-04 15:57 | 8.68234 | -74.94053 | 22934 ft | 210 kts | 10° |
| 2026-05-04 15:58 | 8.69680 | -74.93829 | 22934 ft | 210 kts | 10° |
| 2026-05-04 15:58 | 8.71125 | -74.93605 | 22932 ft | 210 kts | 10° |
| 2026-05-04 15:58 | 8.72598 | -74.93379 | 22707 ft | 220 kts | 10° |
| 2026-05-04 15:58 | 8.74137 | -74.93140 | 22464 ft | 227 kts | 10° |
| 2026-05-04 15:59 | 8.75717 | -74.92896 | 22210 ft | 232 kts | 10° |
| 2026-05-04 15:59 | 8.77321 | -74.92650 | 21986 ft | 235 kts | 10° |
| 2026-05-04 15:59 | 8.78923 | -74.92403 | 21741 ft | 237 kts | 10° |
| 2026-05-04 15:59 | 8.80553 | -74.92151 | 21501 ft | 238 kts | 11° |
| 2026-05-04 16:00 | 8.82190 | -74.91899 | 21258 ft | 238 kts | 11° |
| 2026-05-04 16:00 | 8.83833 | -74.91644 | 21020 ft | 239 kts | 11° |
| 2026-05-04 16:00 | 8.85474 | -74.91391 | 20783 ft | 238 kts | 11° |
| 2026-05-04 16:00 | 8.87111 | -74.91138 | 20547 ft | 238 kts | 11° |
| 2026-05-04 16:01 | 8.88747 | -74.90885 | 20316 ft | 238 kts | 11° |
| 2026-05-04 16:01 | 8.90379 | -74.90632 | 20084 ft | 237 kts | 11° |
| 2026-05-04 16:01 | 8.92009 | -74.90380 | 19850 ft | 237 kts | 11° |
| 2026-05-04 16:01 | 8.93637 | -74.90128 | 19631 ft | 236 kts | 12° |
| 2026-05-04 16:02 | 8.95239 | -74.89880 | 19398 ft | 236 kts | 12° |
| 2026-05-04 16:02 | 8.96863 | -74.89629 | 19172 ft | 236 kts | 12° |
| 2026-05-04 16:02 | 9.00112 | -74.89126 | 18727 ft | 236 kts | 12° |
| 2026-05-04 16:03 | 9.01738 | -74.88874 | 18501 ft | 236 kts | 12° |
| 2026-05-04 16:03 | 9.03359 | -74.88624 | 18282 ft | 236 kts | 12° |
| 2026-05-04 16:03 | 9.03884 | -74.88542 | 18208 ft | 235 kts | 12° |
| 2026-05-04 16:04 | 9.11356 | -74.87384 | 17044 ft | 229 kts | 12° |
| 2026-05-04 16:04 | 9.12921 | -74.87141 | 16794 ft | 226 kts | 12° |
| 2026-05-04 16:05 | 9.14470 | -74.86901 | 16546 ft | 225 kts | 12° |
| 2026-05-04 16:05 | 9.16012 | -74.86662 | 16300 ft | 223 kts | 12° |
| 2026-05-04 16:05 | 9.17025 | -74.86505 | 16190 ft | 221 kts | 12° |
| 2026-05-04 16:06 | 9.20538 | -74.85959 | 15902 ft | 213 kts | 12° |
| 2026-05-04 16:06 | 9.24413 | -74.85357 | 15580 ft | 210 kts | 12° |
| 2026-05-04 16:07 | 9.26326 | -74.85060 | 15424 ft | 210 kts | 12° |
| 2026-05-04 16:07 | 9.30682 | -74.84701 | 15073 ft | 211 kts | 2° |
| 2026-05-04 16:08 | 9.32148 | -74.84723 | 14958 ft | 210 kts | 3° |
| 2026-05-04 16:08 | 9.36536 | -74.84760 | 14612 ft | 210 kts | 3° |
| 2026-05-04 16:09 | 9.39433 | -74.84786 | 14382 ft | 209 kts | 3° |
| 2026-05-04 16:09 | 9.42343 | -74.84813 | 14160 ft | 209 kts | 3° |
| 2026-05-04 16:10 | 9.45246 | -74.84840 | 13928 ft | 209 kts | 3° |
| 2026-05-04 16:11 | 9.49585 | -74.84880 | 13581 ft | 207 kts | 3° |
| 2026-05-04 16:11 | 9.51005 | -74.84893 | 13458 ft | 207 kts | 4° |
| 2026-05-04 16:12 | 9.55315 | -74.84931 | 13075 ft | 206 kts | 3° |
| 2026-05-04 16:12 | 9.59614 | -74.84968 | 12705 ft | 206 kts | 3° |
| 2026-05-04 16:13 | 9.62474 | -74.84994 | 12462 ft | 205 kts | 3° |
| 2026-05-04 16:13 | 9.65308 | -74.85019 | 12219 ft | 205 kts | 3° |
| 2026-05-04 16:14 | 9.68124 | -74.85044 | 11975 ft | 205 kts | 3° |